sensor_id;sensor_type;location;lat;lon;timestamp;P1;durP1;ratioP1;P2;durP2;ratioP2
39822;SDS011;25499;53.958;10.970;2022-10-31T07:14:02;49.83;;;27.65;;
39822;SDS011;25499;53.958;10.970;2022-10-31T07:16:28;57.75;;;29.65;;
39822;SDS011;25499;53.958;10.970;2022-10-31T07:18:54;54.53;;;28.38;;
39822;SDS011;25499;53.958;10.970;2022-10-31T07:21:19;61.25;;;29.30;;
39822;SDS011;25499;53.958;10.970;2022-10-31T07:23:47;64.85;;;30.70;;
39822;SDS011;25499;53.958;10.970;2022-10-31T07:26:13;62.05;;;31.10;;
39822;SDS011;25499;53.958;10.970;2022-10-31T07:28:39;60.50;;;31.50;;
39822;SDS011;25499;53.958;10.970;2022-10-31T07:31:04;62.80;;;30.55;;
39822;SDS011;25499;53.958;10.970;2022-10-31T07:33:29;62.00;;;31.85;;
39822;SDS011;25499;53.958;10.970;2022-10-31T07:35:55;55.13;;;29.10;;
39822;SDS011;25499;53.958;10.970;2022-10-31T07:38:20;56.38;;;28.08;;
39822;SDS011;25499;53.958;10.970;2022-10-31T07:40:49;56.25;;;29.05;;
39822;SDS011;25499;53.958;10.970;2022-10-31T07:45:42;54.38;;;27.80;;
39822;SDS011;25499;53.958;10.970;2022-10-31T07:48:07;54.42;;;27.17;;
39822;SDS011;25499;53.958;10.970;2022-10-31T07:50:33;49.83;;;27.13;;
39822;SDS011;25499;53.958;10.970;2022-10-31T07:53:06;52.72;;;26.35;;
39822;SDS011;25499;53.958;10.970;2022-10-31T07:55:33;46.83;;;25.63;;
39822;SDS011;25499;53.958;10.970;2022-10-31T07:58:00;49.47;;;24.80;;
39822;SDS011;25499;53.958;10.970;2022-10-31T08:00:27;48.58;;;25.52;;
39822;SDS011;25499;53.958;10.970;2022-10-31T08:03:00;48.13;;;24.63;;
39822;SDS011;25499;53.958;10.970;2022-10-31T08:05:30;43.20;;;22.83;;
39822;SDS011;25499;53.958;10.970;2022-10-31T08:07:56;43.10;;;23.85;;
39822;SDS011;25499;53.958;10.970;2022-10-31T08:10:22;42.60;;;22.80;;
39822;SDS011;25499;53.958;10.970;2022-10-31T08:12:54;47.38;;;23.60;;
39822;SDS011;25499;53.958;10.970;2022-10-31T08:15:23;43.38;;;22.33;;
39822;SDS011;25499;53.958;10.970;2022-10-31T08:17:49;44.33;;;23.27;;
39822;SDS011;25499;53.958;10.970;2022-10-31T08:20:14;44.65;;;23.65;;
39822;SDS011;25499;53.958;10.970;2022-10-31T08:22:43;38.97;;;22.33;;
39822;SDS011;25499;53.958;10.970;2022-10-31T08:25:16;39.83;;;21.42;;
39822;SDS011;25499;53.958;10.970;2022-10-31T08:27:42;35.08;;;20.30;;
39822;SDS011;25499;53.958;10.970;2022-10-31T08:30:07;37.42;;;20.48;;
39822;SDS011;25499;53.958;10.970;2022-10-31T08:32:33;35.63;;;19.52;;
39822;SDS011;25499;53.958;10.970;2022-10-31T08:34:58;35.30;;;20.27;;
39822;SDS011;25499;53.958;10.970;2022-10-31T08:37:23;32.78;;;19.75;;
39822;SDS011;25499;53.958;10.970;2022-10-31T08:39:49;35.97;;;20.08;;
39822;SDS011;25499;53.958;10.970;2022-10-31T08:42:14;34.25;;;19.13;;
39822;SDS011;25499;53.958;10.970;2022-10-31T08:44:39;33.22;;;17.63;;
39822;SDS011;25499;53.958;10.970;2022-10-31T08:47:05;29.17;;;17.30;;
39822;SDS011;25499;53.958;10.970;2022-10-31T08:49:30;30.17;;;16.55;;
39822;SDS011;25499;53.958;10.970;2022-10-31T08:51:56;28.50;;;16.45;;
39822;SDS011;25499;53.958;10.970;2022-10-31T08:54:21;28.42;;;15.98;;
39822;SDS011;25499;53.958;10.970;2022-10-31T08:56:46;28.17;;;15.68;;
39822;SDS011;25499;53.958;10.970;2022-10-31T08:59:12;29.90;;;16.60;;
39822;SDS011;25499;53.958;10.970;2022-10-31T09:01:40;27.35;;;15.48;;
39822;SDS011;25499;53.958;10.970;2022-10-31T09:04:06;29.33;;;15.52;;
39822;SDS011;25499;53.958;10.970;2022-10-31T09:06:31;28.63;;;14.48;;
39822;SDS011;25499;53.958;10.970;2022-10-31T09:08:56;24.65;;;14.18;;
39822;SDS011;25499;53.958;10.970;2022-10-31T09:11:22;31.80;;;15.20;;
39822;SDS011;25499;53.958;10.970;2022-10-31T09:13:48;29.15;;;14.60;;
39822;SDS011;25499;53.958;10.970;2022-10-31T09:16:13;26.15;;;14.35;;
39822;SDS011;25499;53.958;10.970;2022-10-31T09:18:38;28.40;;;15.07;;
39822;SDS011;25499;53.958;10.970;2022-10-31T09:21:04;26.60;;;13.13;;
39822;SDS011;25499;53.958;10.970;2022-10-31T09:23:29;26.17;;;15.20;;
39822;SDS011;25499;53.958;10.970;2022-10-31T09:25:55;26.02;;;14.05;;
39822;SDS011;25499;53.958;10.970;2022-10-31T09:28:24;25.40;;;14.15;;
39822;SDS011;25499;53.958;10.970;2022-10-31T09:30:52;23.42;;;13.05;;
39822;SDS011;25499;53.958;10.970;2022-10-31T09:33:19;23.67;;;12.52;;
39822;SDS011;25499;53.958;10.970;2022-10-31T09:35:44;27.05;;;13.07;;
39822;SDS011;25499;53.958;10.970;2022-10-31T09:38:14;23.17;;;12.90;;
39822;SDS011;25499;53.958;10.970;2022-10-31T09:40:45;22.02;;;12.32;;
39822;SDS011;25499;53.958;10.970;2022-10-31T09:51:20;19.27;;;11.32;;
39822;SDS011;25499;53.958;10.970;2022-10-31T09:56:18;19.83;;;10.60;;
39822;SDS011;25499;53.958;10.970;2022-10-31T09:58:55;18.58;;;11.30;;
39822;SDS011;25499;53.958;10.970;2022-10-31T10:03:54;19.40;;;9.88;;
39822;SDS011;25499;53.958;10.970;2022-10-31T10:06:24;19.08;;;9.85;;
39822;SDS011;25499;53.958;10.970;2022-10-31T10:08:54;19.60;;;9.87;;
39822;SDS011;25499;53.958;10.970;2022-10-31T10:16:49;15.68;;;8.43;;
39822;SDS011;25499;53.958;10.970;2022-10-31T10:30:43;15.02;;;7.85;;
39822;SDS011;25499;53.958;10.970;2022-10-31T10:33:13;14.52;;;8.27;;
39822;SDS011;25499;53.958;10.970;2022-10-31T10:35:47;15.32;;;8.07;;
39822;SDS011;25499;53.958;10.970;2022-10-31T10:38:23;17.10;;;8.40;;
39822;SDS011;25499;53.958;10.970;2022-10-31T10:40:52;15.10;;;7.78;;
39822;SDS011;25499;53.958;10.970;2022-10-31T10:43:23;13.32;;;7.28;;
39822;SDS011;25499;53.958;10.970;2022-10-31T10:48:47;12.82;;;7.45;;
39822;SDS011;25499;53.958;10.970;2022-10-31T10:51:21;10.93;;;6.53;;
39822;SDS011;25499;53.958;10.970;2022-10-31T11:01:51;11.25;;;6.35;;
39822;SDS011;25499;53.958;10.970;2022-10-31T11:04:31;9.25;;;5.65;;
39822;SDS011;25499;53.958;10.970;2022-10-31T11:06:59;10.30;;;6.20;;
39822;SDS011;25499;53.958;10.970;2022-10-31T11:09:35;9.98;;;6.15;;
39822;SDS011;25499;53.958;10.970;2022-10-31T11:12:16;9.80;;;6.03;;
39822;SDS011;25499;53.958;10.970;2022-10-31T11:14:55;10.40;;;5.95;;
39822;SDS011;25499;53.958;10.970;2022-10-31T11:17:33;10.93;;;5.82;;
39822;SDS011;25499;53.958;10.970;2022-10-31T11:22:43;10.85;;;6.03;;
39822;SDS011;25499;53.958;10.970;2022-10-31T11:27:58;10.13;;;5.60;;
39822;SDS011;25499;53.958;10.970;2022-10-31T11:30:24;10.85;;;5.80;;
39822;SDS011;25499;53.958;10.970;2022-10-31T11:32:49;11.07;;;5.45;;
39822;SDS011;25499;53.958;10.970;2022-10-31T11:35:17;10.80;;;5.93;;
39822;SDS011;25499;53.958;10.970;2022-10-31T11:37:46;8.82;;;5.55;;
39822;SDS011;25499;53.958;10.970;2022-10-31T11:40:16;11.55;;;5.22;;
39822;SDS011;25499;53.958;10.970;2022-10-31T11:42:45;9.05;;;5.63;;
39822;SDS011;25499;53.958;10.970;2022-10-31T11:45:31;9.55;;;6.90;;
39822;SDS011;25499;53.958;10.970;2022-10-31T11:47:58;9.18;;;7.80;;
39822;SDS011;25499;53.958;10.970;2022-10-31T11:50:35;8.88;;;5.95;;
39822;SDS011;25499;53.958;10.970;2022-10-31T11:53:14;16.83;;;11.88;;
39822;SDS011;25499;53.958;10.970;2022-10-31T11:55:46;10.73;;;6.88;;
39822;SDS011;25499;53.958;10.970;2022-10-31T11:58:23;8.85;;;6.43;;
39822;SDS011;25499;53.958;10.970;2022-10-31T12:00:52;10.73;;;6.35;;
39822;SDS011;25499;53.958;10.970;2022-10-31T12:05:48;8.50;;;5.05;;
39822;SDS011;25499;53.958;10.970;2022-10-31T12:08:17;8.60;;;5.60;;
39822;SDS011;25499;53.958;10.970;2022-10-31T12:13:37;9.90;;;5.05;;
39822;SDS011;25499;53.958;10.970;2022-10-31T12:16:08;9.95;;;5.38;;
39822;SDS011;25499;53.958;10.970;2022-10-31T12:21:25;8.77;;;5.30;;
39822;SDS011;25499;53.958;10.970;2022-10-31T12:32:14;8.93;;;5.75;;
39822;SDS011;25499;53.958;10.970;2022-10-31T12:48:14;9.82;;;5.07;;
39822;SDS011;25499;53.958;10.970;2022-10-31T13:02:16;9.73;;;5.72;;
39822;SDS011;25499;53.958;10.970;2022-10-31T13:07:36;8.73;;;5.57;;
39822;SDS011;25499;53.958;10.970;2022-10-31T13:10:15;10.55;;;6.03;;
39822;SDS011;25499;53.958;10.970;2022-10-31T13:12:45;9.30;;;5.97;;
39822;SDS011;25499;53.958;10.970;2022-10-31T13:15:22;8.57;;;5.80;;
39822;SDS011;25499;53.958;10.970;2022-10-31T13:18:03;11.70;;;5.50;;
39822;SDS011;25499;53.958;10.970;2022-10-31T13:20:37;12.93;;;6.35;;
39822;SDS011;25499;53.958;10.970;2022-10-31T13:25:46;12.30;;;6.05;;
39822;SDS011;25499;53.958;10.970;2022-10-31T13:28:24;13.57;;;6.15;;
39822;SDS011;25499;53.958;10.970;2022-10-31T13:30:55;10.15;;;5.55;;
39822;SDS011;25499;53.958;10.970;2022-10-31T13:33:32;10.20;;;5.28;;
39822;SDS011;25499;53.958;10.970;2022-10-31T13:36:21;11.13;;;5.43;;
39822;SDS011;25499;53.958;10.970;2022-10-31T13:46:45;13.63;;;6.90;;
39822;SDS011;25499;53.958;10.970;2022-10-31T13:54:35;10.40;;;6.78;;
39822;SDS011;25499;53.958;10.970;2022-10-31T13:57:06;11.48;;;6.60;;
39822;SDS011;25499;53.958;10.970;2022-10-31T13:59:45;12.77;;;7.10;;
39822;SDS011;25499;53.958;10.970;2022-10-31T14:02:15;15.38;;;7.68;;
39822;SDS011;25499;53.958;10.970;2022-10-31T14:04:49;13.43;;;7.35;;
39822;SDS011;25499;53.958;10.970;2022-10-31T14:07:19;12.48;;;7.53;;
39822;SDS011;25499;53.958;10.970;2022-10-31T14:15:04;10.88;;;6.70;;
39822;SDS011;25499;53.958;10.970;2022-10-31T14:17:38;11.10;;;6.32;;
39822;SDS011;25499;53.958;10.970;2022-10-31T14:20:37;11.52;;;6.72;;
39822;SDS011;25499;53.958;10.970;2022-10-31T14:26:06;11.10;;;6.75;;
39822;SDS011;25499;53.958;10.970;2022-10-31T14:28:32;9.30;;;5.93;;
39822;SDS011;25499;53.958;10.970;2022-10-31T14:30:59;9.00;;;5.50;;
39822;SDS011;25499;53.958;10.970;2022-10-31T14:33:26;11.27;;;6.45;;
39822;SDS011;25499;53.958;10.970;2022-10-31T14:36:00;11.05;;;5.75;;
39822;SDS011;25499;53.958;10.970;2022-10-31T14:46:25;8.35;;;6.05;;
39822;SDS011;25499;53.958;10.970;2022-10-31T14:49:26;8.77;;;5.65;;
39822;SDS011;25499;53.958;10.970;2022-10-31T14:52:05;8.30;;;5.72;;
39822;SDS011;25499;53.958;10.970;2022-10-31T14:54:32;10.95;;;6.57;;
39822;SDS011;25499;53.958;10.970;2022-10-31T14:57:02;10.43;;;6.82;;
39822;SDS011;25499;53.958;10.970;2022-10-31T14:59:31;9.35;;;6.38;;
39822;SDS011;25499;53.958;10.970;2022-10-31T15:02:12;12.93;;;6.82;;
39822;SDS011;25499;53.958;10.970;2022-10-31T15:04:39;10.85;;;6.60;;
39822;SDS011;25499;53.958;10.970;2022-10-31T15:09:40;14.27;;;7.65;;
39822;SDS011;25499;53.958;10.970;2022-10-31T15:12:21;11.50;;;6.68;;
39822;SDS011;25499;53.958;10.970;2022-10-31T15:14:51;11.77;;;6.97;;
39822;SDS011;25499;53.958;10.970;2022-10-31T15:17:17;11.05;;;7.40;;
39822;SDS011;25499;53.958;10.970;2022-10-31T15:19:43;11.30;;;7.45;;
39822;SDS011;25499;53.958;10.970;2022-10-31T15:22:19;11.93;;;7.20;;
39822;SDS011;25499;53.958;10.970;2022-10-31T15:24:51;9.57;;;6.95;;
39822;SDS011;25499;53.958;10.970;2022-10-31T15:27:21;11.13;;;6.57;;
39822;SDS011;25499;53.958;10.970;2022-10-31T15:29:51;10.27;;;6.32;;
39822;SDS011;25499;53.958;10.970;2022-10-31T15:34:46;11.48;;;6.80;;
39822;SDS011;25499;53.958;10.970;2022-10-31T15:37:21;11.23;;;6.00;;
39822;SDS011;25499;53.958;10.970;2022-10-31T15:39:49;7.85;;;5.85;;
39822;SDS011;25499;53.958;10.970;2022-10-31T15:42:28;10.30;;;6.85;;
39822;SDS011;25499;53.958;10.970;2022-10-31T15:47:35;13.85;;;6.82;;
39822;SDS011;25499;53.958;10.970;2022-10-31T15:50:02;11.10;;;5.90;;
39822;SDS011;25499;53.958;10.970;2022-10-31T15:55:05;8.77;;;6.40;;
39822;SDS011;25499;53.958;10.970;2022-10-31T15:57:54;11.85;;;7.72;;
39822;SDS011;25499;53.958;10.970;2022-10-31T16:00:27;12.95;;;7.60;;
39822;SDS011;25499;53.958;10.970;2022-10-31T16:03:19;10.48;;;7.20;;
39822;SDS011;25499;53.958;10.970;2022-10-31T16:05:49;12.13;;;7.80;;
39822;SDS011;25499;53.958;10.970;2022-10-31T16:10:48;11.13;;;7.32;;
39822;SDS011;25499;53.958;10.970;2022-10-31T16:13:14;12.68;;;7.03;;
39822;SDS011;25499;53.958;10.970;2022-10-31T16:15:45;9.85;;;7.78;;
39822;SDS011;25499;53.958;10.970;2022-10-31T16:18:14;9.75;;;6.95;;
39822;SDS011;25499;53.958;10.970;2022-10-31T16:20:39;13.45;;;7.15;;
39822;SDS011;25499;53.958;10.970;2022-10-31T16:23:05;11.00;;;8.07;;
39822;SDS011;25499;53.958;10.970;2022-10-31T16:25:34;11.55;;;7.38;;
39822;SDS011;25499;53.958;10.970;2022-10-31T16:28:16;12.90;;;8.63;;
39822;SDS011;25499;53.958;10.970;2022-10-31T16:30:44;13.23;;;7.93;;
39822;SDS011;25499;53.958;10.970;2022-10-31T16:35:48;12.90;;;8.40;;
39822;SDS011;25499;53.958;10.970;2022-10-31T16:38:13;12.05;;;8.05;;
39822;SDS011;25499;53.958;10.970;2022-10-31T16:40:39;11.23;;;7.97;;
39822;SDS011;25499;53.958;10.970;2022-10-31T16:43:05;14.52;;;8.05;;
39822;SDS011;25499;53.958;10.970;2022-10-31T16:45:35;11.43;;;7.65;;
39822;SDS011;25499;53.958;10.970;2022-10-31T16:48:03;12.30;;;8.10;;
39822;SDS011;25499;53.958;10.970;2022-10-31T16:50:31;14.17;;;8.50;;
39822;SDS011;25499;53.958;10.970;2022-10-31T16:52:59;12.30;;;8.07;;
39822;SDS011;25499;53.958;10.970;2022-10-31T16:55:24;15.18;;;8.25;;
39822;SDS011;25499;53.958;10.970;2022-10-31T16:57:51;13.90;;;8.25;;
39822;SDS011;25499;53.958;10.970;2022-10-31T17:00:21;14.27;;;8.30;;
39822;SDS011;25499;53.958;10.970;2022-10-31T17:02:48;14.90;;;8.85;;
39822;SDS011;25499;53.958;10.970;2022-10-31T17:05:16;16.48;;;10.15;;
39822;SDS011;25499;53.958;10.970;2022-10-31T17:07:43;16.15;;;10.00;;
39822;SDS011;25499;53.958;10.970;2022-10-31T17:10:09;17.98;;;10.20;;
39822;SDS011;25499;53.958;10.970;2022-10-31T17:12:36;16.75;;;9.50;;
39822;SDS011;25499;53.958;10.970;2022-10-31T17:15:03;17.35;;;9.63;;
39822;SDS011;25499;53.958;10.970;2022-10-31T17:17:31;13.73;;;9.18;;
39822;SDS011;25499;53.958;10.970;2022-10-31T17:19:56;14.23;;;9.40;;
39822;SDS011;25499;53.958;10.970;2022-10-31T17:22:22;19.77;;;10.43;;
39822;SDS011;25499;53.958;10.970;2022-10-31T17:24:47;14.73;;;8.93;;
39822;SDS011;25499;53.958;10.970;2022-10-31T17:27:12;14.75;;;9.70;;
39822;SDS011;25499;53.958;10.970;2022-10-31T17:29:37;16.25;;;9.75;;
39822;SDS011;25499;53.958;10.970;2022-10-31T17:32:03;18.02;;;9.77;;
39822;SDS011;25499;53.958;10.970;2022-10-31T17:34:29;16.85;;;10.07;;
39822;SDS011;25499;53.958;10.970;2022-10-31T17:36:54;16.45;;;10.35;;
39822;SDS011;25499;53.958;10.970;2022-10-31T17:39:19;17.80;;;10.10;;
39822;SDS011;25499;53.958;10.970;2022-10-31T17:41:45;15.30;;;10.20;;
39822;SDS011;25499;53.958;10.970;2022-10-31T17:44:10;16.73;;;10.02;;
39822;SDS011;25499;53.958;10.970;2022-10-31T17:46:36;19.70;;;9.63;;
39822;SDS011;25499;53.958;10.970;2022-10-31T17:49:02;15.02;;;10.23;;
39822;SDS011;25499;53.958;10.970;2022-10-31T17:51:31;15.70;;;10.80;;
39822;SDS011;25499;53.958;10.970;2022-10-31T17:53:56;19.10;;;10.85;;
39822;SDS011;25499;53.958;10.970;2022-10-31T17:56:22;17.42;;;11.07;;
39822;SDS011;25499;53.958;10.970;2022-10-31T17:58:47;18.95;;;11.75;;
39822;SDS011;25499;53.958;10.970;2022-10-31T18:01:15;19.73;;;11.93;;
39822;SDS011;25499;53.958;10.970;2022-10-31T18:03:41;18.45;;;10.95;;
39822;SDS011;25499;53.958;10.970;2022-10-31T18:06:06;19.60;;;11.48;;
39822;SDS011;25499;53.958;10.970;2022-10-31T18:08:34;18.70;;;11.00;;
39822;SDS011;25499;53.958;10.970;2022-10-31T18:11:05;18.30;;;11.07;;
39822;SDS011;25499;53.958;10.970;2022-10-31T18:13:33;19.83;;;11.45;;
39822;SDS011;25499;53.958;10.970;2022-10-31T18:15:58;19.38;;;12.30;;
39822;SDS011;25499;53.958;10.970;2022-10-31T18:18:24;16.17;;;11.60;;
39822;SDS011;25499;53.958;10.970;2022-10-31T18:20:49;16.83;;;12.27;;
39822;SDS011;25499;53.958;10.970;2022-10-31T18:23:15;19.13;;;12.05;;
39822;SDS011;25499;53.958;10.970;2022-10-31T18:25:40;18.10;;;11.93;;
39822;SDS011;25499;53.958;10.970;2022-10-31T18:28:07;19.30;;;11.93;;
39822;SDS011;25499;53.958;10.970;2022-10-31T18:30:33;22.83;;;12.10;;
39822;SDS011;25499;53.958;10.970;2022-10-31T18:33:03;20.17;;;11.85;;
39822;SDS011;25499;53.958;10.970;2022-10-31T18:35:28;19.35;;;11.88;;
39822;SDS011;25499;53.958;10.970;2022-10-31T18:37:54;24.48;;;13.82;;
39822;SDS011;25499;53.958;10.970;2022-10-31T18:40:19;22.17;;;12.73;;
39822;SDS011;25499;53.958;10.970;2022-10-31T18:42:45;26.02;;;13.60;;
39822;SDS011;25499;53.958;10.970;2022-10-31T18:45:10;19.80;;;13.10;;
39822;SDS011;25499;53.958;10.970;2022-10-31T18:47:35;22.17;;;13.93;;
39822;SDS011;25499;53.958;10.970;2022-10-31T18:50:01;20.52;;;12.45;;
39822;SDS011;25499;53.958;10.970;2022-10-31T18:52:27;22.85;;;13.07;;
39822;SDS011;25499;53.958;10.970;2022-10-31T18:54:52;23.60;;;13.38;;
39822;SDS011;25499;53.958;10.970;2022-10-31T18:57:18;22.25;;;13.15;;
39822;SDS011;25499;53.958;10.970;2022-10-31T18:59:43;24.13;;;14.07;;
39822;SDS011;25499;53.958;10.970;2022-10-31T19:02:10;22.23;;;13.02;;
39822;SDS011;25499;53.958;10.970;2022-10-31T19:04:38;24.33;;;13.38;;
39822;SDS011;25499;53.958;10.970;2022-10-31T19:07:04;21.35;;;13.23;;
39822;SDS011;25499;53.958;10.970;2022-10-31T19:09:31;21.50;;;13.43;;
39822;SDS011;25499;53.958;10.970;2022-10-31T19:11:57;21.55;;;13.55;;
39822;SDS011;25499;53.958;10.970;2022-10-31T19:14:23;25.40;;;13.93;;
39822;SDS011;25499;53.958;10.970;2022-10-31T19:16:48;24.45;;;13.15;;
39822;SDS011;25499;53.958;10.970;2022-10-31T19:19:13;25.75;;;14.15;;
39822;SDS011;25499;53.958;10.970;2022-10-31T19:21:39;23.50;;;13.77;;
39822;SDS011;25499;53.958;10.970;2022-10-31T19:24:04;23.08;;;14.02;;
39822;SDS011;25499;53.958;10.970;2022-10-31T19:26:31;23.02;;;13.60;;
39822;SDS011;25499;53.958;10.970;2022-10-31T19:28:57;23.98;;;13.60;;
39822;SDS011;25499;53.958;10.970;2022-10-31T19:31:22;21.10;;;13.20;;
39822;SDS011;25499;53.958;10.970;2022-10-31T19:33:48;25.23;;;13.52;;
39822;SDS011;25499;53.958;10.970;2022-10-31T19:36:14;24.13;;;13.27;;
39822;SDS011;25499;53.958;10.970;2022-10-31T19:38:43;24.13;;;13.23;;
39822;SDS011;25499;53.958;10.970;2022-10-31T19:41:11;27.35;;;13.27;;
39822;SDS011;25499;53.958;10.970;2022-10-31T19:43:38;27.92;;;13.77;;
39822;SDS011;25499;53.958;10.970;2022-10-31T19:46:04;25.83;;;13.95;;
39822;SDS011;25499;53.958;10.970;2022-10-31T19:48:30;25.33;;;14.25;;
39822;SDS011;25499;53.958;10.970;2022-10-31T19:51:03;27.02;;;14.40;;
39822;SDS011;25499;53.958;10.970;2022-10-31T19:53:30;28.48;;;14.60;;
39822;SDS011;25499;53.958;10.970;2022-10-31T19:55:56;26.83;;;13.95;;
39822;SDS011;25499;53.958;10.970;2022-10-31T19:58:23;27.95;;;14.60;;
39822;SDS011;25499;53.958;10.970;2022-10-31T20:00:48;25.45;;;13.85;;
39822;SDS011;25499;53.958;10.970;2022-10-31T20:03:14;27.52;;;14.43;;
39822;SDS011;25499;53.958;10.970;2022-10-31T20:05:40;25.95;;;14.35;;
39822;SDS011;25499;53.958;10.970;2022-10-31T20:08:06;26.60;;;13.73;;
39822;SDS011;25499;53.958;10.970;2022-10-31T20:10:52;26.90;;;14.05;;
39822;SDS011;25499;53.958;10.970;2022-10-31T20:13:21;27.33;;;14.30;;
39822;SDS011;25499;53.958;10.970;2022-10-31T20:15:47;25.33;;;14.00;;
39822;SDS011;25499;53.958;10.970;2022-10-31T20:18:13;24.73;;;14.63;;
39822;SDS011;25499;53.958;10.970;2022-10-31T20:20:38;29.98;;;15.43;;
39822;SDS011;25499;53.958;10.970;2022-10-31T20:23:03;27.75;;;15.77;;
39822;SDS011;25499;53.958;10.970;2022-10-31T20:27:56;27.15;;;14.95;;
39822;SDS011;25499;53.958;10.970;2022-10-31T20:30:25;29.95;;;15.65;;
39822;SDS011;25499;53.958;10.970;2022-10-31T20:32:56;28.65;;;15.82;;
39822;SDS011;25499;53.958;10.970;2022-10-31T20:35:22;31.10;;;16.17;;
39822;SDS011;25499;53.958;10.970;2022-10-31T20:37:50;31.13;;;15.38;;
39822;SDS011;25499;53.958;10.970;2022-10-31T20:40:17;29.23;;;15.43;;
39822;SDS011;25499;53.958;10.970;2022-10-31T20:45:14;30.50;;;14.25;;
39822;SDS011;25499;53.958;10.970;2022-10-31T20:47:39;26.50;;;13.93;;
39822;SDS011;25499;53.958;10.970;2022-10-31T20:50:05;28.05;;;14.48;;
39822;SDS011;25499;53.958;10.970;2022-10-31T20:52:30;31.50;;;15.23;;
